Time;durP1;ratioP1;P1;durP2;ratioP2;P2;SDS_P1;SDS_P2;PMS_P1;PMS_P2;Temp;Humidity;BMP_temperature;BMP_pressure;BME280_temperature;BME280_humidity;BME280_pressure;Samples;Min_cycle;Max_cycle;Signal;HPM_P1;HPM_P2
2023/10/12 00:02:13;;;;;;;8.15;3.88;;;;;;;20.41;62.10;100616.78;5001109;28;20040;-70
2023/10/12 00:04:43;;;;;;;5.80;3.42;;;;;;;20.38;61.92;100623.03;4997504;28;20125;-70
2023/10/12 00:07:15;;;;;;;8.77;4.00;;;;;;;20.41;61.49;100617.63;4996683;28;20124;-70
2023/10/12 00:10:00;;;;;;;10.40;3.75;;;;;;;20.47;60.79;100613.84;5004068;28;20514;-70
2023/10/12 00:12:26;;;;;;;9.07;3.92;;;;;;;20.44;60.84;100608.75;5019632;28;20788;-70
2023/10/12 00:14:54;;;;;;;7.68;3.38;;;;;;;20.38;61.31;100614.31;5017256;28;20029;-70
2023/10/12 00:17:20;;;;;;;13.25;3.78;;;;;;;20.39;60.71;100616.88;5022756;28;20060;-70
2023/10/12 00:19:46;;;;;;;8.32;3.75;;;;;;;20.41;61.04;100627.28;5020072;28;20492;-71
2023/10/12 00:22:14;;;;;;;10.43;4.10;;;;;;;20.43;60.65;100620.16;5017562;28;20029;-70
2023/10/12 00:24:39;;;;;;;10.18;3.83;;;;;;;20.40;60.70;100613.28;5018795;28;20041;-70
2023/10/12 00:27:08;;;;;;;12.25;4.35;;;;;;;20.42;60.77;100610.59;5015928;28;20079;-62
2023/10/12 00:29:34;;;;;;;11.35;3.83;;;;;;;20.37;60.94;100610.81;5018769;28;20053;-62
2023/10/12 00:32:02;;;;;;;11.90;4.20;;;;;;;20.31;61.25;100619.00;5020040;28;20052;-62
2023/10/12 00:34:27;;;;;;;13.10;4.00;;;;;;;20.27;61.33;100617.50;5007378;28;20452;-62
2023/10/12 00:36:53;;;;;;;11.02;4.43;;;;;;;20.24;61.45;100637.78;4999756;28;20069;-62
2023/10/12 00:39:27;;;;;;;10.18;4.03;;;;;;;20.20;61.74;100634.47;4998784;28;20033;-62
2023/10/12 00:41:55;;;;;;;11.10;3.85;;;;;;;20.17;61.83;100632.84;4995666;28;20038;-62
2023/10/12 00:44:26;;;;;;;9.68;3.60;;;;;;;20.18;61.50;100634.53;4999357;28;20038;-62
2023/10/12 00:49:26;;;;;;;11.50;3.20;;;;;;;20.12;61.68;100640.09;4999090;28;20456;-62
2023/10/12 00:52:07;;;;;;;9.20;3.65;;;;;;;20.11;61.38;100633.16;4997633;28;20440;-62
2023/10/12 00:57:05;;;;;;;9.45;4.18;;;;;;;20.17;60.80;100616.25;4999473;28;20056;-62
2023/10/12 00:59:31;;;;;;;9.73;4.15;;;;;;;20.19;61.07;100609.13;4998509;28;20034;-62
2023/10/12 01:02:11;;;;;;;7.90;3.70;;;;;;;20.20;60.90;100607.34;4997739;28;20038;-62
2023/10/12 01:04:39;;;;;;;9.00;4.07;;;;;;;20.16;61.25;100599.63;4994229;28;20042;-62
2023/10/12 01:07:06;;;;;;;9.45;3.88;;;;;;;20.16;61.05;100591.75;4995830;28;20034;-62
2023/10/12 01:09:39;;;;;;;7.97;3.58;;;;;;;20.16;61.20;100590.91;4992889;28;20215;-62
2023/10/12 01:12:13;;;;;;;13.07;3.85;;;;;;;20.13;61.13;100580.56;4996141;28;20057;-63
2023/10/12 01:14:43;;;;;;;11.50;3.65;;;;;;;20.11;61.23;100580.66;4993170;28;20045;-62
2023/10/12 01:17:16;;;;;;;10.20;4.32;;;;;;;20.09;61.41;100587.78;4997255;28;20041;-62
2023/10/12 01:19:45;;;;;;;12.18;4.50;;;;;;;20.08;61.75;100595.69;4997694;28;20033;-62
2023/10/12 01:22:12;;;;;;;11.25;3.55;;;;;;;20.05;62.20;100604.59;4997938;28;20034;-62
2023/10/12 01:27:20;;;;;;;11.55;3.78;;;;;;;19.96;62.54;100606.81;4993652;28;20038;-62
2023/10/12 01:29:46;;;;;;;12.70;4.15;;;;;;;20.08;61.21;100578.19;4997278;28;20071;-62
2023/10/12 01:34:37;;;;;;;10.80;4.13;;;;;;;20.07;61.46;100594.00;5001445;28;20034;-62
2023/10/12 01:37:22;;;;;;;11.13;4.22;;;;;;;20.10;61.00;100580.72;4995909;28;20137;-62
2023/10/12 01:40:11;;;;;;;14.05;3.85;;;;;;;20.13;60.54;100589.28;4991746;28;20032;-61
2023/10/12 01:45:18;;;;;;;10.00;4.28;;;;;;;20.07;61.13;100592.22;4996593;28;21127;-62
2023/10/12 01:48:07;;;;;;;10.25;4.15;;;;;;;20.03;60.88;100601.19;4998267;28;20080;-64
2023/10/12 01:50:37;;;;;;;9.18;4.30;;;;;;;20.04;60.57;100584.50;4996593;28;20049;-63
2023/10/12 01:53:06;;;;;;;9.05;3.88;;;;;;;20.05;60.35;100569.63;5007303;28;20045;-63
2023/10/12 01:55:32;;;;;;;8.90;3.90;;;;;;;20.02;60.41;100596.88;5002886;28;20049;-63
2023/10/12 01:57:58;;;;;;;13.30;4.47;;;;;;;20.03;60.15;100624.81;5004417;28;20033;-64
2023/10/12 02:00:27;;;;;;;10.77;4.07;;;;;;;20.05;59.61;100625.56;5015690;28;20029;-63
2023/10/12 02:03:02;;;;;;;14.20;4.45;;;;;;;20.06;59.68;100642.19;5019129;28;20204;-64
2023/10/12 02:05:31;;;;;;;12.38;3.92;;;;;;;20.02;59.94;100641.47;4995551;28;20038;-64
2023/10/12 02:07:57;;;;;;;12.13;4.10;;;;;;;20.01;60.28;100634.50;5013805;28;20046;-63
2023/10/12 02:10:25;;;;;;;11.48;3.83;;;;;;;19.85;62.08;100691.28;5007490;28;20057;-63
2023/10/12 02:12:55;;;;;;;7.65;4.10;;;;;;;19.62;64.61;100730.81;4997868;28;20029;-63
2023/10/12 02:15:22;;;;;;;16.30;4.10;;;;;;;19.26;68.42;100779.66;5002479;28;20117;-62
2023/10/12 02:17:50;;;;;;;8.27;3.75;;;;;;;18.95;69.27;100790.59;5018092;28;20665;-63
2023/10/12 02:20:18;;;;;;;11.85;4.45;;;;;;;18.76;68.82;100780.00;4995534;28;20124;-63
2023/10/12 02:22:44;;;;;;;11.20;4.30;;;;;;;18.61;71.17;100817.28;4991411;28;20038;-63
2023/10/12 02:25:18;;;;;;;10.60;4.40;;;;;;;18.49;71.25;100808.16;4993284;28;20815;-63
2023/10/12 02:27:58;;;;;;;10.75;3.85;;;;;;;18.42;71.95;100824.19;4995089;28;20141;-63
2023/10/12 02:30:29;;;;;;;7.93;4.05;;;;;;;18.39;73.19;100842.63;4999029;28;20046;-63
2023/10/12 02:33:01;;;;;;;8.23;4.03;;;;;;;18.31;73.82;100840.31;4995494;28;20084;-63
2023/10/12 02:35:36;;;;;;;7.40;4.18;;;;;;;18.26;74.58;100841.38;4993855;28;20543;-63
2023/10/12 02:38:04;;;;;;;5.88;3.42;;;;;;;18.15;76.12;100857.50;4994095;28;20618;-63
2023/10/12 02:40:32;;;;;;;9.20;4.32;;;;;;;18.01;77.51;100845.84;4996268;28;20858;-64
2023/10/12 02:42:59;;;;;;;13.52;4.40;;;;;;;17.92;77.50;100845.31;4997411;28;20153;-63
2023/10/12 02:45:28;;;;;;;11.73;5.40;;;;;;;17.87;77.34;100835.88;4991724;28;20124;-64
2023/10/12 02:47:53;;;;;;;7.88;3.67;;;;;;;17.90;76.04;100820.09;4993461;28;20058;-63
2023/10/12 02:50:27;;;;;;;10.85;4.60;;;;;;;17.95;75.22;100821.66;4997005;28;20091;-63
2023/10/12 02:52:52;;;;;;;15.18;4.25;;;;;;;17.96;75.56;100823.34;4997466;28;20182;-63
2023/10/12 02:57:56;;;;;;;12.00;4.28;;;;;;;18.04;74.97;100830.06;4996909;28;20468;-64
2023/10/12 03:00:35;;;;;;;8.18;4.43;;;;;;;18.05;75.37;100847.47;4998338;28;20037;-63
2023/10/12 03:06:07;;;;;;;7.55;4.07;;;;;;;18.12;74.80;100827.97;4977857;28;20050;-64
2023/10/12 03:08:34;;;;;;;9.75;4.15;;;;;;;18.18;74.31;100814.66;4992188;28;20054;-64
2023/10/12 03:13:35;;;;;;;11.35;4.28;;;;;;;18.17;75.71;100832.13;4991944;28;20052;-64
2023/10/12 03:16:20;;;;;;;8.88;4.22;;;;;;;18.19;74.88;100806.78;4995148;28;20042;-63
2023/10/12 03:18:46;;;;;;;9.98;4.50;;;;;;;18.20;74.71;100804.97;4991904;28;20085;-64
2023/10/12 03:21:11;;;;;;;13.35;5.65;;;;;;;18.25;74.66;100826.63;4996146;28;20044;-63
2023/10/12 03:23:38;;;;;;;11.30;4.72;;;;;;;18.25;75.36;100852.78;4993500;28;20025;-62
2023/10/12 03:26:17;;;;;;;17.73;4.72;;;;;;;18.22;75.91;100864.22;5010678;28;20033;-62
2023/10/12 03:28:44;;;;;;;17.88;5.05;;;;;;;18.17;76.28;100854.81;5014061;28;20103;-63
2023/10/12 03:31:23;;;;;;;7.75;4.22;;;;;;;18.15;75.56;100828.72;5011222;28;20047;-71
2023/10/12 03:33:55;;;;;;;12.07;5.00;;;;;;;18.11;75.81;100819.28;5014765;28;20498;-70
2023/10/12 03:36:36;;;;;;;10.73;4.88;;;;;;;18.07;76.60;100820.31;5011731;28;20065;-71
2023/10/12 03:39:14;;;;;;;7.15;4.53;;;;;;;18.02;77.47;100831.88;5006279;28;20071;-71
2023/10/12 03:44:17;;;;;;;7.30;4.90;;;;;;;17.82;79.88;100807.28;5013039;28;20091;-71
2023/10/12 03:46:45;;;;;;;12.25;5.15;;;;;;;17.74;81.08;100803.25;5010842;28;20037;-71
2023/10/12 03:51:58;;;;;;;8.30;5.07;;;;;;;17.57;84.00;100806.50;5016693;28;20139;-71
2023/10/12 03:54:31;;;;;;;10.85;5.03;;;;;;;17.51;84.78;100796.25;5013157;28;20041;-70
2023/10/12 03:59:52;;;;;;;8.15;5.10;;;;;;;17.48;85.06;100782.44;5020241;28;20203;-70
2023/10/12 04:02:17;;;;;;;13.60;5.78;;;;;;;17.46;85.27;100752.88;5016323;28;20732;-71
2023/10/12 04:05:15;;;;;;;9.00;5.53;;;;;;;17.47;84.92;100728.47;5017812;28;20041;-59
2023/10/12 04:08:00;;;;;;;10.07;5.18;;;;;;;17.44;85.32;100732.03;5000729;28;20038;-59
2023/10/12 04:19:02;;;;;;;11.15;5.57;;;;;;;17.35;88.25;100732.38;5000832;28;20049;-64
2023/10/12 04:21:33;;;;;;;11.98;5.65;;;;;;;17.33;88.74;100734.22;5008643;28;20968;-64
2023/10/12 04:27:00;;;;;;;10.38;5.60;;;;;;;17.21;89.88;100755.56;4996521;28;20033;-64
2023/10/12 04:29:30;;;;;;;9.98;5.40;;;;;;;17.19;90.84;100770.41;4991840;28;20034;-63
2023/10/12 04:31:56;;;;;;;10.98;5.18;;;;;;;17.17;91.23;100786.16;4991627;28;20562;-64
2023/10/12 04:34:27;;;;;;;10.52;5.82;;;;;;;17.15;92.17;100805.38;4999115;28;20037;-63
2023/10/12 04:37:10;;;;;;;12.70;5.95;;;;;;;17.15;92.38;100814.09;4991021;28;20038;-63
2023/10/12 04:39:38;;;;;;;11.55;5.75;;;;;;;17.15;92.29;100827.16;4996555;28;20057;-64
2023/10/12 04:42:11;;;;;;;13.32;6.28;;;;;;;17.16;92.38;100841.91;4995714;28;20034;-64
2023/10/12 04:44:40;;;;;;;7.43;5.32;;;;;;;17.17;92.70;100842.75;5015405;28;20251;-63
2023/10/12 04:47:06;;;;;;;8.15;5.50;;;;;;;17.16;92.40;100826.22;5000077;28;20033;-63
2023/10/12 04:57:26;;;;;;;11.00;5.80;;;;;;;17.20;91.15;100840.03;4998120;28;20532;-63
2023/10/12 05:00:07;;;;;;;11.38;5.95;;;;;;;17.21;91.02;100849.59;5016023;28;20148;-63
2023/10/12 05:07:57;;;;;;;14.00;6.68;;;;;;;17.18;90.38;100842.72;4995839;28;20744;-64
2023/10/12 05:10:48;;;;;;;11.52;6.35;;;;;;;17.13;91.28;100831.56;4994782;28;20038;-63
2023/10/12 05:13:19;;;;;;;11.57;5.97;;;;;;;17.02;92.22;100833.69;4991162;28;20041;-64
2023/10/12 05:18:20;;;;;;;11.18;7.10;;;;;;;16.93;96.40;100840.97;4985496;28;20505;-63
2023/10/12 05:20:45;;;;;;;13.25;7.30;;;;;;;16.85;97.22;100830.78;4993543;28;20022;-64
2023/10/12 05:23:11;;;;;;;10.65;7.05;;;;;;;16.81;97.24;100852.66;4992587;28;20053;-63
2023/10/12 05:26:25;;;;;;;14.93;6.97;;;;;;;16.76;98.37;100862.38;4988741;28;20057;-59
2023/10/12 05:28:31;;;;;;;13.60;6.82;;;;;;;16.70;99.43;100873.88;5009384;28;20041;-60
2023/10/12 05:30:59;;;;;;;14.05;6.60;;;;;;;16.66;100.00;100871.38;5004137;28;20045;-60
2023/10/12 05:33:38;;;;;;;13.77;6.63;;;;;;;16.62;100.00;100875.84;4987680;28;20386;-60
2023/10/12 05:36:05;;;;;;;12.45;6.97;;;;;;;16.60;100.00;100876.78;4989809;28;20045;-63
2023/10/12 05:38:34;;;;;;;12.20;6.95;;;;;;;16.56;100.00;100862.16;4992448;28;20520;-63
2023/10/12 05:41:09;;;;;;;18.23;7.65;;;;;;;16.54;100.00;100874.38;4991526;28;20117;-63
2023/10/12 05:43:40;;;;;;;10.88;6.50;;;;;;;16.52;100.00;100881.41;4991673;28;20606;-64
2023/10/12 05:46:15;;;;;;;11.75;7.82;;;;;;;16.47;100.00;100888.53;4990939;28;20040;-63
2023/10/12 05:48:51;;;;;;;17.73;8.15;;;;;;;16.42;100.00;100896.47;4997680;28;20041;-64
2023/10/12 05:51:19;;;;;;;10.48;7.15;;;;;;;16.38;100.00;100892.28;4994809;28;20038;-64
2023/10/12 05:53:45;;;;;;;13.68;7.13;;;;;;;16.35;100.00;100889.75;5001987;28;20113;-64
2023/10/12 05:56:10;;;;;;;14.73;7.05;;;;;;;16.31;100.00;100885.53;4995983;28;20582;-64
2023/10/12 05:58:38;;;;;;;17.02;8.48;;;;;;;16.30;100.00;100879.44;4992549;28;20042;-64
2023/10/12 06:01:31;;;;;;;10.30;7.63;;;;;;;16.28;100.00;100876.03;4991879;28;20041;-64
2023/10/12 06:03:56;;;;;;;12.88;7.50;;;;;;;16.27;100.00;100884.75;4993483;28;20077;-65
2023/10/12 06:06:21;;;;;;;13.82;8.73;;;;;;;16.25;100.00;100878.75;4994517;28;20037;-66
2023/10/12 06:08:46;;;;;;;15.57;8.05;;;;;;;16.25;100.00;100878.75;5001986;28;20088;-64
2023/10/12 06:11:12;;;;;;;11.23;6.82;;;;;;;16.24;100.00;100884.84;5008118;28;20041;-64
2023/10/12 06:13:41;;;;;;;17.13;8.95;;;;;;;16.23;100.00;100883.16;5008712;28;20037;-64
2023/10/12 06:16:14;;;;;;;14.32;7.47;;;;;;;16.24;100.00;100879.63;5004628;28;20125;-64
2023/10/12 06:18:47;;;;;;;16.25;8.50;;;;;;;16.24;100.00;100877.03;4996806;28;20045;-64
2023/10/12 06:21:19;;;;;;;16.80;8.32;;;;;;;16.24;100.00;100873.56;4998972;28;20153;-64
2023/10/12 06:23:49;;;;;;;17.17;8.40;;;;;;;16.25;100.00;100880.50;4990233;28;20076;-65
2023/10/12 06:26:28;;;;;;;14.00;8.68;;;;;;;16.26;100.00;100884.81;4996001;28;20040;-64
2023/10/12 06:28:55;;;;;;;12.52;8.23;;;;;;;16.28;100.00;100890.84;4995505;28;20034;-63
2023/10/12 06:31:21;;;;;;;16.58;8.10;;;;;;;16.29;100.00;100897.75;4998349;28;20046;-62
2023/10/12 06:33:48;;;;;;;13.30;7.40;;;;;;;16.30;100.00;100908.13;4998412;28;20511;-63
2023/10/12 06:36:22;;;;;;;14.35;8.32;;;;;;;16.32;100.00;100916.75;4997532;28;20505;-63
2023/10/12 06:39:02;;;;;;;15.52;8.02;;;;;;;16.31;100.00;100919.44;4991158;28;20115;-63
2023/10/12 06:46:46;;;;;;;13.55;8.32;;;;;;;16.32;100.00;100921.97;4999352;28;20048;-63
2023/10/12 06:49:18;;;;;;;15.65;8.38;;;;;;;16.31;100.00;100927.25;5006671;28;20041;-62
2023/10/12 06:52:01;;;;;;;17.35;9.00;;;;;;;16.29;100.00;100931.69;5012069;28;20565;-63
2023/10/12 06:54:49;;;;;;;15.25;8.10;;;;;;;16.26;100.00;100932.63;4997575;28;20046;-62
2023/10/12 06:59:52;;;;;;;17.15;8.38;;;;;;;16.23;100.00;100935.31;4998579;28;20021;-63
2023/10/12 07:02:42;;;;;;;18.45;8.52;;;;;;;16.23;100.00;100944.91;4997360;28;20033;-63
2023/10/12 07:05:08;;;;;;;16.08;8.07;;;;;;;16.24;100.00;100950.06;4997751;28;20575;-66
2023/10/12 07:07:39;;;;;;;15.57;8.93;;;;;;;16.24;100.00;100957.88;4998352;28;20557;-66
2023/10/12 07:12:44;;;;;;;17.23;9.40;;;;;;;16.22;100.00;100951.88;5018063;28;20037;-66
2023/10/12 07:15:14;;;;;;;14.45;8.80;;;;;;;16.21;100.00;100954.50;5021666;28;20048;-65
2023/10/12 07:17:48;;;;;;;15.18;9.00;;;;;;;16.21;100.00;100952.75;5014343;28;20025;-67
2023/10/12 07:22:55;;;;;;;19.70;9.50;;;;;;;16.23;100.00;100955.31;5012293;28;20137;-67
2023/10/12 07:25:22;;;;;;;15.57;9.10;;;;;;;16.22;100.00;100961.44;5019969;28;20593;-69
2023/10/12 07:27:58;;;;;;;18.85;9.68;;;;;;;16.21;100.00;100963.19;5021821;28;20030;-69
2023/10/12 07:30:32;;;;;;;19.02;9.73;;;;;;;16.15;100.00;100963.34;5023030;28;20037;-69
2023/10/12 07:33:04;;;;;;;17.05;9.07;;;;;;;16.16;100.00;100972.91;5016032;28;20523;-69
2023/10/12 07:35:34;;;;;;;14.50;9.27;;;;;;;16.12;100.00;100968.66;5021412;28;20037;-65
2023/10/12 07:38:01;;;;;;;20.50;9.40;;;;;;;16.14;100.00;100984.28;5021954;28;20033;-69
2023/10/12 07:40:34;;;;;;;18.40;9.70;;;;;;;16.15;100.00;100978.13;5026207;28;20120;-69
2023/10/12 07:43:07;;;;;;;16.30;9.23;;;;;;;16.13;100.00;100979.94;5020354;28;20592;-68
2023/10/12 07:45:48;;;;;;;16.17;9.00;;;;;;;16.12;100.00;100979.09;5014219;28;20057;-71
2023/10/12 07:48:29;;;;;;;20.92;9.30;;;;;;;16.14;100.00;100976.44;5019688;28;20034;-68
2023/10/12 07:50:54;;;;;;;23.73;10.57;;;;;;;16.12;100.00;100976.47;5022500;28;20484;-69
2023/10/12 07:53:23;;;;;;;20.15;10.02;;;;;;;16.15;100.00;100972.91;5014760;28;20045;-69
2023/10/12 07:56:06;;;;;;;19.98;10.40;;;;;;;16.17;100.00;100971.16;5018199;28;20099;-70
2023/10/12 07:58:31;;;;;;;14.73;9.10;;;;;;;16.14;100.00;100961.66;5014513;28;20042;-70
2023/10/12 08:01:39;;;;;;;20.25;10.70;;;;;;;16.18;100.00;100965.00;5016747;28;20052;-69
2023/10/12 08:03:50;;;;;;;18.52;10.00;;;;;;;16.18;100.00;100976.31;5024651;28;20029;-69
2023/10/12 08:06:17;;;;;;;16.73;9.48;;;;;;;16.18;100.00;100985.88;5014162;28;20032;-68
2023/10/12 08:08:44;;;;;;;18.92;10.10;;;;;;;16.19;100.00;100987.59;5022044;28;20034;-69
2023/10/12 08:11:11;;;;;;;22.00;10.15;;;;;;;16.20;100.00;100990.19;5019062;28;20037;-68
2023/10/12 08:13:39;;;;;;;22.02;9.48;;;;;;;16.25;100.00;100974.38;5021536;28;20377;-69
2023/10/12 08:16:15;;;;;;;16.02;9.50;;;;;;;16.31;100.00;100959.44;5021942;28;20040;-63
2023/10/12 08:24:09;;;;;;;14.25;9.82;;;;;;;16.44;100.00;100977.34;5009126;28;20048;-64
2023/10/12 08:31:47;;;;;;;17.27;8.95;;;;;;;16.51;100.00;100969.28;5017721;28;20103;-63
2023/10/12 08:39:37;;;;;;;17.88;8.73;;;;;;;16.60;100.00;100960.31;5014332;28;20041;-68
2023/10/12 08:42:36;;;;;;;18.10;9.45;;;;;;;16.66;100.00;100955.78;5017297;28;20051;-68
2023/10/12 08:45:09;;;;;;;17.33;9.20;;;;;;;16.72;100.00;100957.34;5009071;28;20727;-68
2023/10/12 08:50:05;;;;;;;16.95;8.93;;;;;;;16.80;100.00;100963.22;4998090;28;20042;-67
2023/10/12 08:52:35;;;;;;;17.08;9.10;;;;;;;16.87;100.00;100956.91;5005785;28;20038;-67
2023/10/12 08:58:13;;;;;;;13.40;8.55;;;;;;;16.98;100.00;100957.41;5022578;28;20046;-67
2023/10/12 09:00:40;;;;;;;19.00;8.95;;;;;;;17.03;100.00;100959.88;5017525;28;20033;-68
2023/10/12 09:05:51;;;;;;;22.80;9.05;;;;;;;17.06;100.00;100967.63;5015838;28;20049;-67
2023/10/12 09:10:55;;;;;;;17.02;8.85;;;;;;;17.10;100.00;100956.16;5014719;28;20132;-67
2023/10/12 09:13:33;;;;;;;17.55;9.18;;;;;;;17.14;100.00;100944.72;5014062;28;20046;-67
2023/10/12 09:16:03;;;;;;;14.55;9.30;;;;;;;17.15;100.00;100942.06;5016011;28;20136;-67
2023/10/12 09:18:35;;;;;;;17.30;9.40;;;;;;;17.21;100.00;100948.84;5016425;28;20125;-67
2023/10/12 09:36:43;;;;;;;18.23;9.63;;;;;;;17.55;100.00;100943.34;5015935;28;20030;-62
2023/10/12 09:39:17;;;;;;;14.95;8.60;;;;;;;17.66;100.00;100946.47;5012684;28;20033;-67
2023/10/12 09:41:54;;;;;;;17.08;8.82;;;;;;;17.71;100.00;100945.41;5013795;28;20129;-67
2023/10/12 09:44:26;;;;;;;15.23;8.50;;;;;;;17.79;100.00;100948.59;5014099;28;20124;-67
2023/10/12 09:46:55;;;;;;;20.70;9.45;;;;;;;17.81;100.00;100959.84;5016119;28;20038;-67
2023/10/12 09:49:23;;;;;;;17.00;9.15;;;;;;;17.90;100.00;100956.06;5013762;28;20049;-67
2023/10/12 09:51:59;;;;;;;15.57;7.88;;;;;;;17.96;100.00;100951.50;5016836;28;20041;-66
2023/10/12 09:54:46;;;;;;;19.33;9.45;;;;;;;18.03;100.00;100946.03;5010819;28;20029;-66
2023/10/12 09:57:26;;;;;;;18.88;8.77;;;;;;;18.12;100.00;100943.94;5018055;28;20033;-67
2023/10/12 09:59:59;;;;;;;14.65;8.60;;;;;;;18.20;100.00;100938.44;5017437;28;20056;-67
2023/10/12 10:02:28;;;;;;;17.27;9.48;;;;;;;18.22;100.00;100934.88;5020498;28;20045;-66
2023/10/12 10:05:11;;;;;;;19.20;9.45;;;;;;;18.34;100.00;100920.47;5020806;28;20043;-67
2023/10/12 10:07:42;;;;;;;15.85;8.50;;;;;;;18.42;100.00;100928.88;5013705;28;20041;-66
2023/10/12 10:10:30;;;;;;;17.85;9.23;;;;;;;18.44;100.00;100927.03;5020419;28;20033;-67
2023/10/12 10:12:53;;;;;;;12.20;7.60;;;;;;;18.44;100.00;100927.03;5008883;28;20144;-66
2023/10/12 10:15:24;;;;;;;19.52;8.52;;;;;;;18.59;100.00;100938.69;5010434;28;20044;-69
2023/10/12 10:17:55;;;;;;;15.30;8.65;;;;;;;18.64;100.00;100939.38;5012710;28;20627;-67
2023/10/12 10:23:01;;;;;;;14.68;8.35;;;;;;;18.63;99.58;100935.91;5016386;28;20041;-66
2023/10/12 10:25:36;;;;;;;13.88;8.07;;;;;;;18.64;99.53;100939.38;5017792;28;20100;-68
2023/10/12 10:28:09;;;;;;;22.15;7.93;;;;;;;18.71;99.83;100930.38;5015623;28;20826;-67
2023/10/12 10:30:41;;;;;;;19.92;8.52;;;;;;;18.74;99.05;100931.09;5023739;28;20041;-67
2023/10/12 10:33:17;;;;;;;17.00;8.00;;;;;;;18.72;98.70;100945.16;5008143;28;20030;-66
2023/10/12 10:35:57;;;;;;;15.38;8.02;;;;;;;18.81;98.94;100937.81;5022050;28;20113;-66
2023/10/12 10:38:34;;;;;;;17.50;9.00;;;;;;;18.73;98.65;100939.84;5016926;28;20049;-66
2023/10/12 10:41:18;;;;;;;15.38;8.40;;;;;;;18.78;98.28;100937.06;5008191;28;20037;-66
2023/10/12 10:43:44;;;;;;;15.63;8.55;;;;;;;18.79;99.15;100944.84;5019280;28;20157;-64
2023/10/12 10:46:10;;;;;;;19.23;8.40;;;;;;;18.89;97.82;100940.16;5017382;28;20033;-64
2023/10/12 10:48:39;;;;;;;14.48;8.30;;;;;;;18.97;97.86;100943.31;5023086;28;20033;-64
2023/10/12 10:51:18;;;;;;;12.57;7.32;;;;;;;19.15;98.08;100942.56;5017493;28;20044;-63
2023/10/12 10:53:50;;;;;;;14.32;8.98;;;;;;;19.21;96.43;100950.19;5017059;28;20049;-64
2023/10/12 10:56:16;;;;;;;12.48;7.55;;;;;;;19.34;95.52;100942.69;5017204;28;20050;-64
2023/10/12 10:58:46;;;;;;;11.32;8.20;;;;;;;19.47;96.37;100947.34;5024294;28;20044;-63
2023/10/12 11:01:12;;;;;;;15.23;8.23;;;;;;;19.50;94.72;100941.97;5027704;28;20451;-63
2023/10/12 11:03:39;;;;;;;15.70;7.43;;;;;;;19.58;93.28;100949.53;5023436;28;20048;-65
2023/10/12 11:06:21;;;;;;;14.40;7.80;;;;;;;19.80;92.97;100939.84;5029828;28;20029;-66
2023/10/12 11:08:53;;;;;;;12.45;7.57;;;;;;;19.93;90.51;100927.03;5022529;28;20045;-66
2023/10/12 11:11:37;;;;;;;12.98;7.85;;;;;;;19.92;90.64;100927.94;5026175;28;20033;-68
2023/10/12 11:14:03;;;;;;;14.18;7.20;;;;;;;19.89;88.57;100915.81;5021435;28;20051;-68
2023/10/12 11:16:31;;;;;;;14.20;6.93;;;;;;;19.91;90.01;100914.00;5021629;28;20132;-69
2023/10/12 11:18:59;;;;;;;14.95;7.15;;;;;;;20.02;89.51;100914.38;5029038;28;20137;-69
2023/10/12 11:21:26;;;;;;;15.13;7.55;;;;;;;20.20;88.76;100899.56;5018916;28;20075;-69
2023/10/12 11:24:01;;;;;;;15.07;7.53;;;;;;;20.38;88.14;100898.72;5029208;28;20074;-69
2023/10/12 11:26:26;;;;;;;17.15;7.75;;;;;;;20.41;85.92;100887.22;5019776;28;20045;-63
2023/10/12 11:29:12;;;;;;;13.63;7.22;;;;;;;20.49;85.76;100891.19;5017267;28;20067;-64
2023/10/12 11:31:37;;;;;;;11.77;6.90;;;;;;;20.55;85.84;100901.41;5024484;28;20308;-65
2023/10/12 11:34:12;;;;;;;12.23;6.50;;;;;;;20.69;84.32;100892.88;5022508;28;20617;-63
2023/10/12 11:36:37;;;;;;;12.68;6.35;;;;;;;20.80;83.23;100880.09;5024937;28;20045;-63
2023/10/12 11:39:16;;;;;;;13.30;6.63;;;;;;;20.90;84.95;100876.06;5021378;28;20041;-63
2023/10/12 11:42:00;;;;;;;12.90;6.72;;;;;;;21.00;83.74;100868.59;5017486;28;20053;-69
2023/10/12 11:44:33;;;;;;;18.38;7.05;;;;;;;20.97;82.62;100866.13;5017747;28;20892;-69
2023/10/12 11:47:00;;;;;;;11.40;6.72;;;;;;;20.86;84.61;100890.31;5004142;28;20061;-69
2023/10/12 11:49:26;;;;;;;14.95;6.40;;;;;;;20.89;83.16;100866.50;5002430;28;20084;-64
2023/10/12 11:51:57;;;;;;;14.23;6.75;;;;;;;20.97;83.51;100858.25;5000154;28;20038;-63
2023/10/12 11:54:32;;;;;;;15.40;6.57;;;;;;;20.96;82.40;100859.16;5000932;28;20034;-63
2023/10/12 11:56:58;;;;;;;18.77;7.10;;;;;;;20.80;83.27;100861.72;4999877;28;20072;-65
2023/10/12 11:59:31;;;;;;;12.73;6.88;;;;;;;20.74;82.49;100863.78;5017597;28;20524;-63
2023/10/12 12:01:57;;;;;;;12.40;6.38;;;;;;;20.90;83.39;100851.59;5016423;28;20048;-62
2023/10/12 12:04:36;;;;;;;10.20;6.00;;;;;;;20.84;82.28;100850.09;5019600;28;20042;-63
2023/10/12 12:07:04;;;;;;;9.23;5.45;;;;;;;20.91;82.94;100850.66;5021217;28;20083;-63
2023/10/12 12:09:30;;;;;;;11.63;5.75;;;;;;;20.89;83.27;100861.25;5027029;28;20765;-63
2023/10/12 12:11:56;;;;;;;10.52;5.80;;;;;;;20.82;83.75;100862.47;5013915;28;20037;-63
2023/10/12 12:14:22;;;;;;;12.50;5.40;;;;;;;20.75;81.64;100849.72;5021412;28;20466;-69
2023/10/12 12:16:47;;;;;;;10.27;4.90;;;;;;;20.67;80.19;100832.53;5019870;28;20037;-69
2023/10/12 12:19:18;;;;;;;10.25;4.82;;;;;;;20.56;78.62;100820.84;5024595;28;20777;-68
2023/10/12 12:21:45;;;;;;;10.20;4.78;;;;;;;20.58;79.53;100838.22;5022411;28;20042;-69
2023/10/12 12:26:46;;;;;;;10.85;5.25;;;;;;;20.54;79.30;100836.66;5014355;28;20082;-69
2023/10/12 12:29:12;;;;;;;12.18;5.40;;;;;;;20.49;78.26;100827.28;5015266;28;20037;-69
2023/10/12 12:31:38;;;;;;;10.93;5.40;;;;;;;20.56;80.71;100840.06;5020211;28;20034;-69
2023/10/12 12:34:06;;;;;;;10.57;5.57;;;;;;;20.52;79.01;100814.03;5025146;28;20071;-68
2023/10/12 12:36:32;;;;;;;10.05;4.80;;;;;;;20.55;80.90;100841.00;5017443;28;20136;-69
2023/10/12 12:39:00;;;;;;;12.05;5.72;;;;;;;20.49;81.18;100848.31;5017783;28;20037;-69
2023/10/12 12:41:26;;;;;;;9.35;4.90;;;;;;;20.38;81.10;100853.22;5015518;28;20055;-68
2023/10/12 12:43:53;;;;;;;9.77;4.97;;;;;;;20.25;82.44;100854.72;5018535;28;20302;-69
2023/10/12 12:46:19;;;;;;;12.45;5.13;;;;;;;20.09;83.37;100855.44;5012784;28;20536;-63
2023/10/12 12:48:48;;;;;;;9.27;4.97;;;;;;;19.98;83.58;100864.69;5017422;28;20753;-62
2023/10/12 12:51:18;;;;;;;7.70;4.47;;;;;;;19.82;84.33;100859.31;5014871;28;20437;-62
2023/10/12 12:53:48;;;;;;;11.30;5.10;;;;;;;19.74;84.55;100850.88;5015157;28;20030;-63
2023/10/12 12:56:18;;;;;;;10.25;4.53;;;;;;;19.66;85.05;100853.00;5015548;28;20432;-64
2023/10/12 12:58:46;;;;;;;8.85;4.72;;;;;;;19.56;86.00;100856.97;5015155;28;20307;-64
2023/10/12 13:01:13;;;;;;;7.72;4.57;;;;;;;19.47;85.97;100860.81;5018948;28;20095;-64
2023/10/12 13:03:38;;;;;;;8.50;4.65;;;;;;;19.40;86.93;100858.53;5016132;28;20120;-64
2023/10/12 13:06:07;;;;;;;9.63;4.72;;;;;;;19.30;88.04;100854.59;5020716;28;20029;-60
2023/10/12 13:08:36;;;;;;;10.23;4.82;;;;;;;19.15;90.17;100863.09;5022396;28;20285;-60
2023/10/12 13:11:04;;;;;;;13.02;5.47;;;;;;;18.97;91.95;100860.34;5014992;28;20048;-61
2023/10/12 13:13:33;;;;;;;8.55;4.63;;;;;;;18.80;95.43;100865.38;5013000;28;20041;-62
2023/10/12 13:15:59;;;;;;;12.82;5.55;;;;;;;18.63;98.87;100862.59;5019161;28;20578;-62
2023/10/12 13:18:29;;;;;;;11.52;5.78;;;;;;;18.48;100.00;100874.53;5018797;28;20029;-63
2023/10/12 13:20:57;;;;;;;12.38;6.30;;;;;;;18.35;100.00;100873.28;5022023;28;20032;-71
2023/10/12 13:23:23;;;;;;;10.43;6.00;;;;;;;18.22;100.00;100873.81;5015040;28;20433;-70
2023/10/12 13:25:49;;;;;;;14.23;7.38;;;;;;;18.15;100.00;100864.50;5023704;28;20033;-70
2023/10/12 13:28:14;;;;;;;11.05;5.90;;;;;;;18.05;100.00;100881.47;5017409;28;20042;-64
2023/10/12 13:30:40;;;;;;;15.10;6.72;;;;;;;18.01;100.00;100874.63;5019248;28;20416;-65